Time;durP1;ratioP1;P1;durP2;ratioP2;P2;SDS_P1;SDS_P2;PMS_P1;PMS_P2;Temp;Humidity;BMP_temperature;BMP_pressure;BME280_temperature;BME280_humidity;BME280_pressure;Samples;Min_cycle;Max_cycle;Signal;HPM_P1;HPM_P2
2022/03/28 00:01:18;;;;;;;21.13;9.20;;;;;;;6.63;60.93;101241.88;5129363;27;20030;-31
2022/03/28 00:03:44;;;;;;;19.92;9.82;;;;;;;6.62;61.09;101229.63;5110787;27;20035;-29
2022/03/28 00:06:09;;;;;;;22.70;9.40;;;;;;;6.53;62.17;101226.13;5110732;27;20035;-32
2022/03/28 00:08:36;;;;;;;19.60;9.68;;;;;;;6.43;61.82;101231.56;5129237;27;20027;-29
2022/03/28 00:11:02;;;;;;;16.23;8.68;;;;;;;6.55;62.60;101236.56;5129091;27;20031;-29
2022/03/28 00:13:28;;;;;;;19.10;9.35;;;;;;;6.58;62.39;101244.22;5129027;27;20019;-29
2022/03/28 00:15:54;;;;;;;17.10;9.48;;;;;;;6.74;62.66;101248.69;5110837;27;20748;-29
2022/03/28 00:18:19;;;;;;;15.30;9.23;;;;;;;6.68;62.85;101241.38;5110463;27;20563;-29
2022/03/28 00:20:47;;;;;;;18.73;9.65;;;;;;;6.69;62.85;101241.22;5129058;27;20110;-29
2022/03/28 00:23:13;;;;;;;18.20;9.35;;;;;;;6.64;63.05;101233.78;5128854;27;20027;-29
2022/03/28 00:25:40;;;;;;;22.65;9.88;;;;;;;6.51;64.29;101243.19;5128784;27;20083;-31
2022/03/28 00:28:06;;;;;;;19.95;9.90;;;;;;;6.37;64.17;101226.09;5109967;27;20024;-29
2022/03/28 00:30:32;;;;;;;20.05;10.30;;;;;;;6.47;64.48;101241.88;5110370;27;20042;-30
2022/03/28 00:32:59;;;;;;;20.02;10.52;;;;;;;6.50;64.79;101252.13;5128545;27;20047;-33
2022/03/28 00:35:25;;;;;;;18.35;9.70;;;;;;;6.38;65.48;101249.78;5128544;27;20394;-34
2022/03/28 00:37:51;;;;;;;19.88;9.27;;;;;;;6.23;65.41;101225.75;5110240;27;20096;-29
2022/03/28 00:40:17;;;;;;;19.88;10.18;;;;;;;6.23;65.77;101241.66;5109839;27;20081;-31
2022/03/28 00:42:43;;;;;;;17.05;9.63;;;;;;;6.34;64.95;101259.06;5128690;27;20035;-30
2022/03/28 00:45:09;;;;;;;21.02;10.60;;;;;;;6.26;65.66;101245.78;5128541;27;20498;-29
2022/03/28 00:47:35;;;;;;;18.35;9.85;;;;;;;6.37;64.60;101245.47;5110091;27;20027;-31
2022/03/28 00:50:01;;;;;;;16.40;10.10;;;;;;;6.41;65.23;101246.81;5110163;28;20452;-30
2022/03/28 00:52:26;;;;;;;20.52;9.75;;;;;;;6.49;64.12;101242.53;5128466;28;20031;-29
2022/03/28 00:54:52;;;;;;;17.95;9.75;;;;;;;6.53;64.72;101241.22;5128056;27;20030;-33
2022/03/28 00:57:18;;;;;;;20.85;10.18;;;;;;;6.37;65.05;101248.13;5110022;28;20667;-29
2022/03/28 00:59:44;;;;;;;20.85;9.88;;;;;;;6.49;64.14;101229.28;5109993;28;20095;-30
2022/03/28 01:02:10;;;;;;;23.83;10.10;;;;;;;6.57;64.39;101255.78;5109987;28;20035;-30
2022/03/28 01:04:37;;;;;;;17.33;10.48;;;;;;;6.33;65.44;101230.88;5109932;28;20023;-29
2022/03/28 01:07:05;;;;;;;20.77;10.73;;;;;;;6.20;65.36;101233.19;5128464;28;20479;-31
2022/03/28 01:09:30;;;;;;;25.45;11.98;;;;;;;5.95;66.44;101235.75;5109669;28;20462;-29
2022/03/28 01:11:57;;;;;;;22.38;10.15;;;;;;;6.09;66.15;101246.72;5128646;28;20019;-30
2022/03/28 01:14:26;;;;;;;24.67;11.33;;;;;;;5.66;68.05;101246.69;5109778;28;20027;-29
2022/03/28 01:19:35;;;;;;;22.73;10.93;;;;;;;5.34;69.29;101239.41;5128242;28;20088;-32
2022/03/28 01:22:00;;;;;;;19.80;10.98;;;;;;;5.47;68.43;101228.38;5128046;28;20027;-31
2022/03/28 01:24:26;;;;;;;18.45;10.30;;;;;;;5.54;68.70;101250.59;5128335;28;20019;-29
2022/03/28 01:26:53;;;;;;;22.88;10.90;;;;;;;5.72;68.51;101243.41;5128071;28;20056;-31
2022/03/28 01:29:19;;;;;;;23.98;10.98;;;;;;;5.75;68.78;101242.25;5109724;28;20066;-32
2022/03/28 01:31:45;;;;;;;20.48;11.00;;;;;;;5.71;69.09;101246.22;5128207;28;20027;-30
2022/03/28 01:34:17;;;;;;;23.23;10.88;;;;;;;5.90;68.96;101239.84;5128345;28;20051;-29
2022/03/28 01:36:47;;;;;;;19.60;10.20;;;;;;;5.82;68.91;101224.75;5109357;28;20835;-33
2022/03/28 01:39:17;;;;;;;16.45;9.48;;;;;;;6.03;68.97;101251.69;5109656;28;20568;-31
2022/03/28 01:41:43;;;;;;;19.50;10.25;;;;;;;6.20;68.56;101241.97;5109778;28;20608;-33
2022/03/28 01:44:08;;;;;;;15.48;10.30;;;;;;;6.11;68.59;101231.50;5109499;28;20054;-32
2022/03/28 01:46:44;;;;;;;18.70;9.23;;;;;;;6.19;69.04;101256.22;5128092;28;20028;-29
2022/03/28 01:49:10;;;;;;;20.73;10.10;;;;;;;6.21;68.30;101258.69;5109064;28;20509;-32
2022/03/28 01:51:36;;;;;;;19.63;10.70;;;;;;;6.13;69.07;101256.00;5109768;28;20081;-31
2022/03/28 01:54:02;;;;;;;16.90;9.27;;;;;;;5.86;70.11;101260.50;5128249;28;20077;-32
2022/03/28 01:56:28;;;;;;;18.60;10.50;;;;;;;6.11;69.34;101253.53;5128035;28;20045;-30
2022/03/28 01:58:54;;;;;;;20.92;10.25;;;;;;;5.99;69.45;101260.94;5109164;28;20091;-29
2022/03/28 02:01:19;;;;;;;19.67;10.45;;;;;;;5.83;69.72;101271.41;5127725;28;20027;-30
2022/03/28 02:03:45;;;;;;;18.58;9.80;;;;;;;5.62;70.39;101272.63;5127841;28;20483;-30
2022/03/28 02:06:10;;;;;;;23.52;10.85;;;;;;;5.32;70.98;101262.53;5130313;27;20031;-30
2022/03/28 02:08:36;;;;;;;21.30;12.73;;;;;;;5.23;71.72;101251.03;5131694;27;20027;-30
2022/03/28 02:11:02;;;;;;;31.50;22.17;;;;;;;5.12;70.89;101256.59;5131511;27;20038;-31
2022/03/28 02:13:27;;;;;;;22.02;11.15;;;;;;;4.92;72.17;101256.75;5131714;27;20121;-33
2022/03/28 02:15:52;;;;;;;21.67;10.75;;;;;;;5.04;72.73;101254.72;5131892;27;20027;-29
2022/03/28 02:18:18;;;;;;;18.35;11.20;;;;;;;5.00;72.53;101266.56;5131149;27;20058;-29
2022/03/28 02:20:43;;;;;;;24.42;11.30;;;;;;;5.26;72.38;101268.44;5112839;27;20137;-30
2022/03/28 02:23:09;;;;;;;20.50;10.43;;;;;;;5.02;71.74;101269.88;5131462;27;20118;-29
2022/03/28 02:25:37;;;;;;;18.85;10.20;;;;;;;4.92;72.84;101256.75;5131425;27;20034;-29
2022/03/28 02:28:03;;;;;;;19.67;10.63;;;;;;;4.95;72.68;101271.50;5131023;27;20027;-31
2022/03/28 02:30:30;;;;;;;17.20;9.93;;;;;;;4.77;74.14;101274.97;5112504;27;20503;-31
2022/03/28 02:32:56;;;;;;;19.67;10.02;;;;;;;4.48;74.82;101243.47;5130606;27;20039;-31
2022/03/28 02:35:22;;;;;;;19.65;9.60;;;;;;;4.67;74.67;101268.94;5112719;27;20019;-29
2022/03/28 02:37:48;;;;;;;19.35;10.80;;;;;;;4.77;74.75;101276.78;5131171;27;20481;-31
2022/03/28 02:40:13;;;;;;;20.75;10.23;;;;;;;4.68;75.23;101286.44;5112400;27;20487;-29
2022/03/28 02:42:39;;;;;;;24.60;11.02;;;;;;;5.00;73.44;101274.50;5131152;27;20030;-29
2022/03/28 02:45:05;;;;;;;22.02;11.55;;;;;;;5.10;73.26;101275.25;5130597;27;20062;-29
2022/03/28 02:47:31;;;;;;;19.77;11.20;;;;;;;5.09;72.64;101275.38;5112164;27;20031;-31
2022/03/28 02:49:57;;;;;;;19.45;10.55;;;;;;;5.34;71.96;101287.00;5112285;27;20550;-29
2022/03/28 02:52:22;;;;;;;21.83;12.45;;;;;;;5.04;73.05;101279.31;5112452;27;20051;-29
2022/03/28 02:54:48;;;;;;;19.55;10.13;;;;;;;5.28;71.99;101298.19;5111987;27;20483;-33
2022/03/28 02:57:14;;;;;;;22.23;10.38;;;;;;;5.14;72.71;101296.94;5130866;27;20035;-28
2022/03/28 02:59:40;;;;;;;21.73;9.95;;;;;;;5.04;72.62;101289.06;5130444;27;20019;-28
2022/03/28 03:02:06;;;;;;;20.60;11.52;;;;;;;5.28;71.99;101296.38;5130256;27;20630;-29
2022/03/28 03:04:32;;;;;;;19.38;10.77;;;;;;;5.13;72.12;101272.31;5130483;27;20031;-31
2022/03/28 03:06:58;;;;;;;19.95;10.93;;;;;;;5.21;72.29;101295.31;5111854;27;20055;-29
2022/03/28 03:09:24;;;;;;;22.02;11.00;;;;;;;5.23;71.97;101304.78;5112116;27;20079;-31
2022/03/28 03:11:50;;;;;;;18.23;10.55;;;;;;;4.85;71.62;101281.31;5130415;27;20040;-29
2022/03/28 03:14:16;;;;;;;22.27;10.38;;;;;;;4.97;72.60;101294.16;5111744;27;20041;-30
2022/03/28 03:16:41;;;;;;;80.07;46.15;;;;;;;5.18;71.94;101296.47;5111456;27;20027;-29
2022/03/28 03:19:07;;;;;;;34.10;20.55;;;;;;;5.11;72.27;101292.78;5111511;27;20487;-33
2022/03/28 03:21:33;;;;;;;22.48;11.05;;;;;;;5.11;73.44;101302.50;5111604;27;20091;-29
2022/03/28 03:23:58;;;;;;;21.20;12.02;;;;;;;5.19;73.42;101302.56;5129955;27;20022;-33
2022/03/28 03:26:24;;;;;;;20.42;12.05;;;;;;;4.69;74.93;101287.28;5129869;27;20031;-29
2022/03/28 03:28:49;;;;;;;23.45;12.93;;;;;;;4.76;75.17;101299.75;5129501;27;20031;-32
2022/03/28 03:31:15;;;;;;;23.55;12.60;;;;;;;4.76;75.13;101312.97;5129900;27;20034;-29
2022/03/28 03:33:41;;;;;;;19.58;10.77;;;;;;;4.67;75.70;101311.19;5107597;28;20073;-31
2022/03/28 03:36:07;;;;;;;21.42;11.52;;;;;;;4.55;75.85;101312.41;5107321;28;20077;-33
2022/03/28 03:38:32;;;;;;;23.02;12.77;;;;;;;4.46;76.25;101297.44;5107666;28;20132;-32
2022/03/28 03:40:58;;;;;;;100.40;51.10;;;;;;;4.96;74.89;101310.97;5107499;28;20023;-29
2022/03/28 03:43:25;;;;;;;122.05;67.60;;;;;;;5.21;73.83;101314.69;5109312;28;20035;-31
2022/03/28 03:45:51;;;;;;;61.78;33.47;;;;;;;4.89;74.05;101288.78;5108802;28;20023;-31
2022/03/28 03:48:18;;;;;;;33.25;16.23;;;;;;;4.90;74.81;101322.16;5107844;28;20024;-29
2022/03/28 03:50:44;;;;;;;63.88;30.30;;;;;;;4.71;74.08;101294.06;5108936;28;20036;-30
2022/03/28 03:53:10;;;;;;;28.27;14.80;;;;;;;4.72;74.20;101297.53;5108881;28;20806;-31
2022/03/28 03:55:36;;;;;;;70.55;37.25;;;;;;;4.74;74.41;101306.13;5108926;28;20073;-34
2022/03/28 03:58:02;;;;;;;213.48;90.63;;;;;;;4.85;73.36;101313.03;5107356;28;20224;-30
2022/03/28 04:00:27;;;;;;;113.18;54.47;;;;;;;4.77;74.31;101309.31;5107186;28;20023;-33
2022/03/28 04:02:53;;;;;;;109.75;54.88;;;;;;;4.72;74.31;101308.09;5108671;28;20031;-29
2022/03/28 04:05:19;;;;;;;73.78;40.90;;;;;;;4.95;74.42;101327.00;5108762;28;20027;-33
2022/03/28 04:07:44;;;;;;;57.08;30.90;;;;;;;5.18;73.54;101330.03;5108733;28;20126;-31
2022/03/28 04:10:11;;;;;;;53.03;30.30;;;;;;;5.11;73.70;101337.75;5106996;28;20157;-30
2022/03/28 04:12:37;;;;;;;39.45;18.73;;;;;;;5.14;73.22;101339.25;5106757;28;20067;-30
2022/03/28 04:15:03;;;;;;;108.35;66.35;;;;;;;4.96;73.62;101348.00;5106836;28;20593;-29
2022/03/28 04:17:29;;;;;;;38.88;21.75;;;;;;;4.63;74.68;101337.09;5107301;28;20023;-29
2022/03/28 04:19:55;;;;;;;33.20;14.63;;;;;;;4.72;74.70;101353.88;5107020;28;20027;-30
2022/03/28 04:22:21;;;;;;;24.20;12.55;;;;;;;4.80;74.03;101332.81;5108272;28;20618;-38
2022/03/28 04:24:47;;;;;;;34.92;21.73;;;;;;;4.95;73.85;101343.69;5108263;28;20416;-31
2022/03/28 04:27:12;;;;;;;31.58;21.40;;;;;;;4.98;73.50;101340.75;5108159;28;20106;-30
2022/03/28 04:29:38;;;;;;;30.67;19.30;;;;;;;4.99;74.01;101352.16;5107086;28;20031;-32
2022/03/28 04:32:03;;;;;;;25.27;12.68;;;;;;;5.00;73.33;101356.47;5108477;28;20023;-31
2022/03/28 04:34:29;;;;;;;24.55;12.15;;;;;;;5.29;72.04;101331.59;5108002;28;20066;-29
2022/03/28 04:36:54;;;;;;;20.45;12.68;;;;;;;5.09;72.64;101352.94;5108187;28;20027;-31
2022/03/28 04:39:20;;;;;;;35.80;13.57;;;;;;;4.74;73.40;101365.13;5107914;28;20062;-30
2022/03/28 04:41:45;;;;;;;31.10;12.88;;;;;;;4.89;73.13;101359.34;5107946;28;20031;-31
2022/03/28 04:44:11;;;;;;;25.42;14.40;;;;;;;4.84;73.59;101365.03;5107919;28;20024;-31
2022/03/28 04:46:36;;;;;;;34.67;18.92;;;;;;;4.82;73.98;101357.28;5108117;28;20024;-32
2022/03/28 04:49:02;;;;;;;25.83;14.07;;;;;;;4.73;74.38;101347.59;5107849;28;20545;-29
2022/03/28 04:51:28;;;;;;;31.90;14.70;;;;;;;5.32;72.29;101361.22;5107932;28;20540;-29
2022/03/28 04:53:54;;;;;;;264.70;110.65;;;;;;;5.07;72.85;101367.25;5108014;28;20023;-30
2022/03/28 04:56:19;;;;;;;31.45;17.20;;;;;;;5.26;72.91;101368.94;5106609;28;20027;-30
2022/03/28 04:58:45;;;;;;;108.38;42.25;;;;;;;5.04;73.63;101371.03;5107912;28;20050;-30
2022/03/28 05:01:10;;;;;;;34.67;16.52;;;;;;;4.94;74.57;101375.56;5107738;28;20068;-29
2022/03/28 05:03:36;;;;;;;45.15;22.73;;;;;;;5.09;72.97;101358.22;5107926;28;20032;-30
2022/03/28 05:06:02;;;;;;;57.50;30.13;;;;;;;5.20;73.38;101373.00;5108241;28;20024;-29
2022/03/28 05:08:27;;;;;;;26.50;15.35;;;;;;;5.39;72.58;101364.06;5106464;28;20043;-31
2022/03/28 05:10:53;;;;;;;26.58;15.05;;;;;;;5.35;72.67;101368.88;5106426;28;20028;-30
2022/03/28 05:13:20;;;;;;;29.67;15.68;;;;;;;5.46;72.95;101374.91;5106282;28;20035;-31
2022/03/28 05:15:46;;;;;;;29.38;16.30;;;;;;;5.38;72.69;101363.25;5106772;28;20116;-30
2022/03/28 05:18:14;;;;;;;30.40;15.82;;;;;;;5.75;72.28;101383.38;5106455;28;20114;-36
2022/03/28 05:20:40;;;;;;;;;;;;;;;6.20;70.30;101400.06;5108321;28;20475;-31
2022/03/28 05:23:05;;;;;;;36.47;18.55;;;;;;;6.42;68.59;101372.19;5105942;28;20010;-30
2022/03/28 05:25:31;;;;;;;43.05;24.42;;;;;;;6.35;69.13;101395.81;5107756;28;20047;-32
2022/03/28 05:27:56;;;;;;;30.02;16.27;;;;;;;6.60;67.80;101398.63;5102890;28;20411;-29
2022/03/28 05:30:22;;;;;;;27.05;15.18;;;;;;;6.64;67.76;101394.66;5090832;28;20478;-29
2022/03/28 05:32:47;;;;;;;25.83;14.23;;;;;;;6.57;67.93;101386.50;5093115;28;20055;-33
2022/03/28 05:35:13;;;;;;;25.50;14.18;;;;;;;6.54;67.89;101396.56;5107591;28;20023;-29
2022/03/28 05:37:40;;;;;;;27.77;14.45;;;;;;;6.99;65.83;101408.69;5107737;28;20043;-30
2022/03/28 05:40:08;;;;;;;25.05;13.55;;;;;;;7.23;64.88;101411.38;5090887;28;20034;-30
2022/03/28 05:42:34;;;;;;;42.60;19.17;;;;;;;7.48;63.89;101411.41;5092612;28;20027;-34
2022/03/28 05:44:59;;;;;;;22.77;11.48;;;;;;;7.19;63.96;101391.47;5111073;28;20571;-34
2022/03/28 05:47:25;;;;;;;25.77;14.93;;;;;;;7.16;65.31;101402.38;5111468;28;20042;-30
2022/03/28 05:49:51;;;;;;;29.45;15.85;;;;;;;7.35;64.06;101397.75;5092873;28;20046;-30
2022/03/28 05:52:16;;;;;;;32.40;15.85;;;;;;;7.67;64.51;101409.41;5111144;28;20111;-32
2022/03/28 05:54:42;;;;;;;25.90;15.07;;;;;;;7.73;63.70;101411.38;5111161;28;20024;-30
2022/03/28 05:57:07;;;;;;;30.80;16.17;;;;;;;7.95;63.61;101413.34;5110524;28;20065;-30
2022/03/28 05:59:33;;;;;;;29.65;15.00;;;;;;;8.15;62.33;101397.88;5111097;28;20016;-30
2022/03/28 06:01:59;;;;;;;26.20;14.05;;;;;;;8.64;59.65;101412.84;5092505;28;20567;-31
2022/03/28 06:04:24;;;;;;;30.55;16.15;;;;;;;8.56;61.08;101415.53;5111025;28;20042;-32
2022/03/28 06:06:49;;;;;;;25.83;15.73;;;;;;;8.64;60.51;101410.19;5110682;28;20024;-29
2022/03/28 06:09:15;;;;;;;24.65;15.23;;;;;;;8.66;59.22;101408.16;5110915;28;20036;-30
2022/03/28 06:11:41;;;;;;;27.20;14.23;;;;;;;8.87;58.80;101414.72;5110294;28;20732;-35
2022/03/28 06:14:06;;;;;;;25.42;15.02;;;;;;;8.82;57.64;101400.09;5110820;28;20400;-30
2022/03/28 06:16:32;;;;;;;20.00;12.82;;;;;;;8.85;58.21;101425.56;5111019;28;20462;-30
2022/03/28 06:18:57;;;;;;;23.85;12.00;;;;;;;8.79;56.70;101416.44;5110526;28;20119;-29
2022/03/28 06:21:23;;;;;;;18.20;10.85;;;;;;;8.81;57.61;101425.06;5110761;28;20024;-30
2022/03/28 06:23:48;;;;;;;23.80;10.45;;;;;;;9.01;57.09;101421.97;5110470;28;20034;-34
2022/03/28 06:26:14;;;;;;;24.38;11.23;;;;;;;9.01;56.82;101419.28;5110398;28;20020;-30
2022/03/28 06:28:40;;;;;;;19.40;10.52;;;;;;;9.20;55.17;101418.03;5110524;28;20027;-33
2022/03/28 06:31:06;;;;;;;23.60;12.20;;;;;;;9.39;54.27;101427.38;5110523;28;20039;-29
2022/03/28 06:33:32;;;;;;;19.27;10.70;;;;;;;9.54;55.59;101427.44;5088426;28;20044;-30
2022/03/28 06:35:58;;;;;;;22.70;10.98;;;;;;;9.43;55.86;101410.03;5088587;28;20024;-31
2022/03/28 06:38:23;;;;;;;20.65;10.60;;;;;;;9.58;55.64;101402.94;5089929;28;20024;-32
2022/03/28 06:40:49;;;;;;;18.83;10.65;;;;;;;9.70;56.42;101408.66;5089348;28;20028;-29
2022/03/28 06:43:14;;;;;;;14.90;9.90;;;;;;;9.68;55.97;101425.81;5089842;28;20035;-30
2022/03/28 06:45:40;;;;;;;22.63;11.05;;;;;;;9.50;55.36;101424.31;5088112;28;20035;-31
2022/03/28 06:48:06;;;;;;;20.80;10.57;;;;;;;9.39;55.48;101428.19;5088111;28;20031;-33
2022/03/28 06:50:34;;;;;;;23.70;11.30;;;;;;;9.85;54.03;101408.69;5089175;28;20039;-33
2022/03/28 06:53:00;;;;;;;20.75;9.65;;;;;;;9.60;53.26;101400.94;5087414;28;20110;-33
2022/03/28 06:55:26;;;;;;;21.20;10.85;;;;;;;9.82;54.74;101398.38;5087943;28;20046;-30
2022/03/28 06:57:52;;;;;;;19.45;10.48;;;;;;;9.96;54.23;101412.75;5088341;28;20040;-32
2022/03/28 07:00:17;;;;;;;17.40;9.70;;;;;;;9.95;54.39;101414.59;5088134;28;20036;-31
2022/03/28 07:02:43;;;;;;;20.55;9.95;;;;;;;10.25;53.26;101415.44;5089422;28;20507;-30
2022/03/28 07:05:09;;;;;;;20.27;10.48;;;;;;;10.42;54.36;101418.78;5089286;28;20055;-29
2022/03/28 07:07:45;;;;;;;17.58;9.20;;;;;;;10.37;53.25;101405.16;5087744;28;20036;-31
2022/03/28 07:10:12;;;;;;;14.77;9.00;;;;;;;10.66;52.18;101408.81;5088056;28;20477;-31
2022/03/28 07:12:38;;;;;;;20.25;9.63;;;;;;;10.55;52.70;101418.13;5087863;28;20036;-29
2022/03/28 07:15:06;;;;;;;16.23;9.95;;;;;;;10.68;53.45;101401.47;5087678;28;20055;-30
2022/03/28 07:17:33;;;;;;;19.00;10.20;;;;;;;10.93;54.23;101417.13;5087294;28;20551;-29
2022/03/28 07:19:59;;;;;;;18.70;9.63;;;;;;;11.03;52.32;101412.31;5087640;28;20096;-32
2022/03/28 07:22:24;;;;;;;20.58;11.43;;;;;;;11.38;50.46;101407.13;5087190;28;20024;-30
2022/03/28 07:24:50;;;;;;;22.27;11.52;;;;;;;11.48;50.03;101415.66;5088689;28;20031;-32
2022/03/28 07:27:17;;;;;;;20.05;10.30;;;;;;;11.57;48.67;101395.81;5088895;28;20117;-31
2022/03/28 07:29:43;;;;;;;20.55;11.48;;;;;;;11.57;49.54;101403.81;5087369;28;20119;-35
2022/03/28 07:32:09;;;;;;;20.10;10.75;;;;;;;11.94;48.00;101401.06;5089225;28;20032;-32
2022/03/28 07:34:35;;;;;;;22.35;11.27;;;;;;;12.00;47.67;101411.78;5108989;28;20031;-34
2022/03/28 07:37:03;;;;;;;19.80;9.55;;;;;;;11.99;47.63;101396.78;5090434;28;20059;-30
2022/03/28 07:39:29;;;;;;;18.95;11.20;;;;;;;12.10;49.28;101398.09;5090606;28;20028;-34
2022/03/28 07:41:55;;;;;;;21.23;11.07;;;;;;;12.34;47.98;101401.28;5108828;28;20112;-33
2022/03/28 07:44:20;;;;;;;20.45;10.50;;;;;;;12.35;48.95;101377.03;5090570;28;20765;-30
2022/03/28 07:46:46;;;;;;;22.40;10.57;;;;;;;12.57;50.22;101379.59;5108893;28;20099;-29
2022/03/28 07:49:13;;;;;;;19.90;12.30;;;;;;;12.51;47.41;101401.81;5090460;28;20388;-32
2022/03/28 07:51:38;;;;;;;18.52;10.35;;;;;;;12.76;47.20;101397.56;5108337;28;20027;-33
2022/03/28 07:54:04;;;;;;;19.38;10.93;;;;;;;12.99;46.74;101399.06;5108913;28;20032;-31
2022/03/28 07:56:31;;;;;;;18.50;10.80;;;;;;;12.60;48.62;101380.00;5108682;28;20031;-31
2022/03/28 07:59:00;;;;;;;20.33;10.75;;;;;;;13.18;46.18;101381.41;5090042;28;20556;-30
2022/03/28 08:01:25;;;;;;;17.67;11.80;;;;;;;13.03;46.07;101389.63;5089964;28;20123;-30
2022/03/28 08:03:51;;;;;;;18.92;9.95;;;;;;;12.96;46.38;101386.09;5107624;28;20110;-29
2022/03/28 08:06:17;;;;;;;17.67;10.18;;;;;;;13.26;46.60;101390.09;5089661;28;20123;-29
2022/03/28 08:08:42;;;;;;;19.88;10.35;;;;;;;13.29;46.37;101394.22;5108572;28;20053;-33
2022/03/28 08:11:09;;;;;;;25.10;11.93;;;;;;;12.98;47.78;101379.50;5107941;28;20031;-32
2022/03/28 08:13:35;;;;;;;19.00;11.23;;;;;;;13.21;46.96;101386.34;5089878;28;20027;-30
2022/03/28 08:16:02;;;;;;;20.20;11.60;;;;;;;13.12;48.00;101371.50;5108394;28;20040;-30
2022/03/28 08:18:27;;;;;;;17.75;10.50;;;;;;;13.45;46.68;101376.94;5089799;28;20047;-37
2022/03/28 08:20:53;;;;;;;24.80;12.10;;;;;;;13.68;47.34;101371.16;5107876;28;20050;-29
2022/03/28 08:23:23;;;;;;;16.88;9.63;;;;;;;13.64;45.84;101365.38;5089844;28;20123;-32
2022/03/28 08:25:49;;;;;;;16.52;10.52;;;;;;;13.99;45.15;101366.97;5089968;28;20115;-30
2022/03/28 08:28:15;;;;;;;25.55;11.35;;;;;;;14.16;44.77;101349.41;5089625;28;20028;-30
2022/03/28 08:30:41;;;;;;;14.70;9.05;;;;;;;14.38;43.62;101360.66;5089919;28;20038;-30
2022/03/28 08:33:07;;;;;;;19.40;9.85;;;;;;;14.48;45.19;101362.91;5107487;28;20048;-32
2022/03/28 08:35:32;;;;;;;16.67;9.32;;;;;;;14.58;44.21;101349.06;5089793;28;20536;-29
2022/03/28 08:37:58;;;;;;;23.40;11.32;;;;;;;14.78;44.13;101349.78;5108295;28;20113;-33
2022/03/28 08:40:24;;;;;;;16.05;9.15;;;;;;;14.63;43.27;101341.22;5107981;28;20031;-39
2022/03/28 08:42:49;;;;;;;31.08;20.35;;;;;;;14.65;43.81;101341.81;5089351;28;20743;-32
2022/03/28 08:45:16;;;;;;;38.28;21.02;;;;;;;14.59;43.77;101337.31;5107844;28;20032;-32
2022/03/28 08:47:44;;;;;;;19.50;10.57;;;;;;;15.09;43.81;101323.16;5089310;28;20053;-33
2022/03/28 08:50:11;;;;;;;16.73;9.40;;;;;;;15.38;43.47;101333.25;5089366;28;20042;-34
2022/03/28 08:52:41;;;;;;;16.30;10.93;;;;;;;15.41;42.42;101323.94;5108070;28;20411;-29
2022/03/28 08:55:11;;;;;;;16.80;9.75;;;;;;;15.46;42.29;101316.00;5089269;28;20494;-29
2022/03/28 08:57:37;;;;;;;18.33;10.13;;;;;;;15.42;42.55;101312.94;5108055;28;20554;-29
2022/03/28 09:00:06;;;;;;;15.35;9.45;;;;;;;15.96;41.86;101310.59;5107869;28;20023;-30
2022/03/28 09:02:41;;;;;;;15.60;8.43;;;;;;;16.01;40.54;101301.84;5107564;28;20023;-29
2022/03/28 09:05:09;;;;;;;16.88;8.60;;;;;;;16.27;41.31;101284.56;5089294;28;20149;-29
2022/03/28 09:07:34;;;;;;;15.02;9.50;;;;;;;16.35;41.69;101286.13;5107910;28;20522;-29
2022/03/28 09:10:05;;;;;;;16.80;9.50;;;;;;;16.47;39.49;101277.03;5107891;28;20036;-33
2022/03/28 09:12:30;;;;;;;18.48;9.18;;;;;;;16.47;39.54;101290.50;5107618;28;20038;-30
2022/03/28 09:14:58;;;;;;;14.02;8.85;;;;;;;16.67;39.62;101281.31;5109129;28;20027;-31
2022/03/28 09:17:25;;;;;;;15.32;8.82;;;;;;;17.08;39.49;101282.38;5093543;28;20121;-31
2022/03/28 09:19:55;;;;;;;14.93;9.00;;;;;;;16.79;40.82;101284.03;5093484;28;20514;-29
2022/03/28 09:22:25;;;;;;;15.52;9.23;;;;;;;16.76;40.33;101269.16;5093341;28;20050;-29
2022/03/28 09:25:05;;;;;;;21.98;8.80;;;;;;;17.18;40.57;101266.47;5111557;28;20028;-29
2022/03/28 09:27:37;;;;;;;16.23;8.45;;;;;;;17.09;39.60;101267.84;5111061;28;20023;-32
2022/03/28 09:30:11;;;;;;;16.10;9.20;;;;;;;17.17;38.59;101264.00;5093254;28;20023;-29
2022/03/28 09:32:38;;;;;;;16.30;8.02;;;;;;;17.37;38.55;101250.16;5092836;28;20056;-30
2022/03/28 09:35:08;;;;;;;17.98;9.23;;;;;;;17.80;38.09;101255.16;5092861;28;20051;-30
2022/03/28 09:38:04;;;;;;;16.35;7.97;;;;;;;18.23;38.22;101248.47;5111110;28;20039;-35
2022/03/28 09:40:39;;;;;;;17.98;9.73;;;;;;;18.72;37.54;101231.78;5105776;28;20063;-33
2022/03/28 09:43:29;;;;;;;18.70;9.23;;;;;;;18.58;36.78;101241.28;5092714;28;20142;-30
2022/03/28 09:45:56;;;;;;;14.40;8.75;;;;;;;18.96;34.55;101226.25;5092718;28;20031;-29
2022/03/28 09:48:25;;;;;;;15.35;8.75;;;;;;;18.91;34.52;101239.69;5092486;28;20031;-30
2022/03/28 09:51:01;;;;;;;14.13;9.15;;;;;;;19.04;34.33;101234.78;5092433;28;20119;-32
2022/03/28 09:53:32;;;;;;;14.73;9.18;;;;;;;18.89;34.72;101225.59;5092751;28;20543;-32
2022/03/28 09:55:57;;;;;;;13.57;8.10;;;;;;;19.13;35.00;101221.66;5110947;28;20020;-35
2022/03/28 09:58:37;;;;;;;13.63;8.13;;;;;;;18.78;33.97;101213.78;5092521;28;20081;-34
2022/03/28 10:01:14;;;;;;;13.40;8.52;;;;;;;19.31;35.90;101195.38;5110879;28;20038;-29
2022/03/28 10:03:41;;;;;;;15.30;9.02;;;;;;;19.63;34.41;101196.34;5092657;28;20038;-31
2022/03/28 10:06:08;;;;;;;14.75;8.20;;;;;;;19.80;33.05;101188.22;5092474;28;20063;-34
2022/03/28 10:08:35;;;;;;;13.68;7.93;;;;;;;20.21;32.75;101199.50;5092585;28;20020;-31
2022/03/28 10:11:02;;;;;;;14.10;8.63;;;;;;;20.23;32.51;101186.50;5110440;28;20419;-32
2022/03/28 10:13:30;;;;;;;15.27;8.38;;;;;;;20.28;31.57;101178.41;5092105;28;20039;-33
2022/03/28 10:15:57;;;;;;;13.77;8.75;;;;;;;20.48;32.09;101172.38;5092303;28;20130;-33
2022/03/28 10:18:26;;;;;;;12.05;7.85;;;;;;;19.90;33.88;101182.13;5092347;28;20023;-32
2022/03/28 10:20:54;;;;;;;12.90;8.38;;;;;;;19.86;34.68;101170.16;5091953;28;20039;-32
2022/03/28 10:23:26;;;;;;;17.27;8.35;;;;;;;19.93;33.99;101173.47;5092323;28;20024;-34
2022/03/28 10:25:54;;;;;;;13.45;8.65;;;;;;;20.14;34.81;101160.13;5109535;28;20040;-31
2022/03/28 10:28:20;;;;;;;15.48;8.73;;;;;;;19.50;33.60;101134.53;5092023;28;20024;-30
2022/03/28 10:30:46;;;;;;;13.80;8.45;;;;;;;20.04;34.67;101150.84;5092152;28;20053;-31
2022/03/28 10:33:16;;;;;;;16.60;8.02;;;;;;;19.77;34.57;101152.72;5091454;28;20051;-32
2022/03/28 10:36:00;;;;;;;12.55;7.57;;;;;;;20.07;33.58;101139.50;5091973;28;20034;-31
2022/03/28 10:38:26;;;;;;;43.22;27.15;;;;;;;20.11;34.46;101133.59;5091746;28;20035;-31
2022/03/28 10:41:00;;;;;;;18.45;11.13;;;;;;;19.80;34.49;101130.56;5091755;28;20544;-32
2022/03/28 10:43:31;;;;;;;13.85;8.40;;;;;;;19.87;34.67;101125.75;5091727;28;20042;-31
2022/03/28 10:46:00;;;;;;;22.48;11.27;;;;;;;19.72;36.99;101106.66;5110283;28;20060;-29
2022/03/28 10:48:44;;;;;;;17.48;9.93;;;;;;;20.00;35.13;101119.09;5091500;28;20031;-30
2022/03/28 10:51:19;;;;;;;14.38;8.43;;;;;;;19.45;33.92;101110.94;5091720;28;20085;-30
2022/03/28 10:53:52;;;;;;;16.27;8.02;;;;;;;19.40;34.69;101102.75;5110283;28;20084;-30
2022/03/28 10:56:23;;;;;;;12.48;8.10;;;;;;;19.46;35.44;101095.50;5091478;28;20055;-32
2022/03/28 10:58:58;;;;;;;14.13;8.23;;;;;;;19.58;35.44;101082.66;5091321;28;20591;-31
2022/03/28 11:01:35;;;;;;;15.75;8.98;;;;;;;19.74;34.69;101093.69;5109933;28;20084;-31
2022/03/28 11:04:16;;;;;;;19.97;8.93;;;;;;;19.77;34.75;101087.75;5110395;28;20076;-31
2022/03/28 11:07:04;;;;;;;16.13;8.40;;;;;;;19.90;34.96;101084.66;5091277;28;20088;-34
2022/03/28 11:09:51;;;;;;;13.43;8.10;;;;;;;20.07;32.83;101077.22;5091169;28;20036;-31
2022/03/28 11:12:29;;;;;;;17.75;8.15;;;;;;;20.37;34.37;101067.72;5092091;28;20062;-34
2022/03/28 11:15:23;;;;;;;11.55;7.88;;;;;;;20.33;33.65;101052.22;5091063;28;20027;-35
2022/03/28 11:17:56;;;;;;;18.30;9.20;;;;;;;20.72;33.99;101057.38;5089611;28;20471;-29
2022/03/28 11:20:23;;;;;;;14.60;8.45;;;;;;;20.38;33.84;101053.09;5109421;28;20106;-32